sensor_id;sensor_type;location;lat;lon;timestamp;P1;durP1;ratioP1;P2;durP2;ratioP2
77152;SDS011;66124;51.146;17.072;2023-04-24T00:01:39;11.50;;;8.50;;
77152;SDS011;66124;51.146;17.072;2023-04-24T00:04:09;12.30;;;8.10;;
77152;SDS011;66124;51.146;17.072;2023-04-24T00:06:38;10.30;;;7.70;;
77152;SDS011;66124;51.146;17.072;2023-04-24T00:09:08;13.10;;;8.20;;
77152;SDS011;66124;51.146;17.072;2023-04-24T00:11:37;11.20;;;7.80;;
77152;SDS011;66124;51.146;17.072;2023-04-24T00:14:07;10.80;;;7.90;;
77152;SDS011;66124;51.146;17.072;2023-04-24T00:16:36;10.10;;;7.70;;
77152;SDS011;66124;51.146;17.072;2023-04-24T00:19:05;11.30;;;8.20;;
77152;SDS011;66124;51.146;17.072;2023-04-24T00:21:35;11.40;;;8.20;;
77152;SDS011;66124;51.146;17.072;2023-04-24T00:24:04;12.10;;;8.20;;
77152;SDS011;66124;51.146;17.072;2023-04-24T00:35:07;11.20;;;7.60;;
77152;SDS011;66124;51.146;17.072;2023-04-24T00:37:36;12.30;;;8.10;;
77152;SDS011;66124;51.146;17.072;2023-04-24T00:40:07;10.80;;;7.60;;
77152;SDS011;66124;51.146;17.072;2023-04-24T00:42:37;11.60;;;7.90;;
77152;SDS011;66124;51.146;17.072;2023-04-24T00:45:09;12.50;;;8.70;;
77152;SDS011;66124;51.146;17.072;2023-04-24T00:47:39;11.20;;;8.30;;
77152;SDS011;66124;51.146;17.072;2023-04-24T00:50:11;11.80;;;9.00;;
77152;SDS011;66124;51.146;17.072;2023-04-24T00:52:42;11.20;;;8.30;;
77152;SDS011;66124;51.146;17.072;2023-04-24T00:55:11;10.80;;;8.40;;
77152;SDS011;66124;51.146;17.072;2023-04-24T00:57:40;12.10;;;7.70;;
77152;SDS011;66124;51.146;17.072;2023-04-24T01:00:11;11.40;;;7.40;;
77152;SDS011;66124;51.146;17.072;2023-04-24T01:02:41;10.60;;;7.70;;
77152;SDS011;66124;51.146;17.072;2023-04-24T01:05:12;11.30;;;7.80;;
77152;SDS011;66124;51.146;17.072;2023-04-24T01:07:43;11.80;;;7.80;;
77152;SDS011;66124;51.146;17.072;2023-04-24T01:10:14;11.20;;;8.00;;
77152;SDS011;66124;51.146;17.072;2023-04-24T01:12:44;11.40;;;8.80;;
77152;SDS011;66124;51.146;17.072;2023-04-24T01:15:13;9.50;;;7.20;;
77152;SDS011;66124;51.146;17.072;2023-04-24T01:17:43;9.80;;;7.80;;
77152;SDS011;66124;51.146;17.072;2023-04-24T01:20:12;9.60;;;8.20;;
77152;SDS011;66124;51.146;17.072;2023-04-24T01:22:43;9.80;;;8.40;;
77152;SDS011;66124;51.146;17.072;2023-04-24T01:25:12;9.40;;;6.90;;
77152;SDS011;66124;51.146;17.072;2023-04-24T01:27:42;10.80;;;7.60;;
77152;SDS011;66124;51.146;17.072;2023-04-24T01:30:12;12.00;;;7.80;;
77152;SDS011;66124;51.146;17.072;2023-04-24T01:32:42;10.80;;;7.70;;
77152;SDS011;66124;51.146;17.072;2023-04-24T01:35:12;10.20;;;8.00;;
77152;SDS011;66124;51.146;17.072;2023-04-24T01:37:42;14.20;;;8.40;;
77152;SDS011;66124;51.146;17.072;2023-04-24T01:40:12;10.70;;;7.80;;
77152;SDS011;66124;51.146;17.072;2023-04-24T01:42:42;10.00;;;7.90;;
77152;SDS011;66124;51.146;17.072;2023-04-24T01:55:44;11.90;;;8.40;;
77152;SDS011;66124;51.146;17.072;2023-04-24T01:58:14;13.20;;;8.40;;
77152;SDS011;66124;51.146;17.072;2023-04-24T02:00:43;9.80;;;7.80;;
77152;SDS011;66124;51.146;17.072;2023-04-24T02:03:13;13.70;;;8.10;;
77152;SDS011;66124;51.146;17.072;2023-04-24T02:05:44;15.00;;;8.70;;
77152;SDS011;66124;51.146;17.072;2023-04-24T02:10:41;12.00;;;7.60;;
77152;SDS011;66124;51.146;17.072;2023-04-24T02:13:11;10.30;;;7.50;;
77152;SDS011;66124;51.146;17.072;2023-04-24T02:15:40;10.90;;;8.10;;
77152;SDS011;66124;51.146;17.072;2023-04-24T02:18:09;11.90;;;7.90;;
77152;SDS011;66124;51.146;17.072;2023-04-24T02:20:39;10.20;;;8.30;;
77152;SDS011;66124;51.146;17.072;2023-04-24T02:23:08;11.40;;;7.40;;
77152;SDS011;66124;51.146;17.072;2023-04-24T02:25:38;11.50;;;8.00;;
77152;SDS011;66124;51.146;17.072;2023-04-24T02:28:07;11.70;;;7.40;;
77152;SDS011;66124;51.146;17.072;2023-04-24T02:30:36;10.90;;;7.30;;
77152;SDS011;66124;51.146;17.072;2023-04-24T02:33:06;12.90;;;8.10;;
77152;SDS011;66124;51.146;17.072;2023-04-24T02:35:35;11.90;;;9.10;;
77152;SDS011;66124;51.146;17.072;2023-04-24T02:38:04;13.80;;;8.80;;
77152;SDS011;66124;51.146;17.072;2023-04-24T02:40:34;12.20;;;7.80;;
77152;SDS011;66124;51.146;17.072;2023-04-24T02:43:03;12.60;;;8.90;;
77152;SDS011;66124;51.146;17.072;2023-04-24T02:45:33;12.00;;;8.00;;
77152;SDS011;66124;51.146;17.072;2023-04-24T02:48:02;10.40;;;7.30;;
77152;SDS011;66124;51.146;17.072;2023-04-24T02:50:32;11.50;;;8.20;;
77152;SDS011;66124;51.146;17.072;2023-04-24T02:53:01;15.40;;;8.60;;
77152;SDS011;66124;51.146;17.072;2023-04-24T02:55:31;14.10;;;8.60;;
77152;SDS011;66124;51.146;17.072;2023-04-24T02:58:00;14.20;;;9.00;;
77152;SDS011;66124;51.146;17.072;2023-04-24T03:00:29;12.00;;;8.80;;
77152;SDS011;66124;51.146;17.072;2023-04-24T03:02:59;11.30;;;8.60;;
77152;SDS011;66124;51.146;17.072;2023-04-24T03:05:28;11.20;;;8.40;;
77152;SDS011;66124;51.146;17.072;2023-04-24T03:15:33;12.30;;;9.50;;
77152;SDS011;66124;51.146;17.072;2023-04-24T03:18:02;11.80;;;9.60;;
77152;SDS011;66124;51.146;17.072;2023-04-24T03:20:32;15.10;;;9.70;;
77152;SDS011;66124;51.146;17.072;2023-04-24T03:23:01;14.10;;;9.70;;
77152;SDS011;66124;51.146;17.072;2023-04-24T03:25:30;12.90;;;9.70;;
77152;SDS011;66124;51.146;17.072;2023-04-24T03:28:01;13.00;;;9.20;;
77152;SDS011;66124;51.146;17.072;2023-04-24T03:30:31;15.30;;;10.00;;
77152;SDS011;66124;51.146;17.072;2023-04-24T03:33:00;13.10;;;8.90;;
77152;SDS011;66124;51.146;17.072;2023-04-24T03:35:29;14.20;;;9.10;;
77152;SDS011;66124;51.146;17.072;2023-04-24T03:37:59;11.20;;;8.80;;
77152;SDS011;66124;51.146;17.072;2023-04-24T03:40:28;11.80;;;9.00;;
77152;SDS011;66124;51.146;17.072;2023-04-24T03:42:58;11.40;;;8.60;;
77152;SDS011;66124;51.146;17.072;2023-04-24T03:45:27;12.90;;;9.00;;
77152;SDS011;66124;51.146;17.072;2023-04-24T03:47:56;11.40;;;8.70;;
77152;SDS011;66124;51.146;17.072;2023-04-24T03:50:26;11.20;;;8.70;;
77152;SDS011;66124;51.146;17.072;2023-04-24T03:52:55;12.30;;;8.30;;
77152;SDS011;66124;51.146;17.072;2023-04-24T03:55:25;9.80;;;8.00;;
77152;SDS011;66124;51.146;17.072;2023-04-24T03:57:54;11.20;;;8.80;;
77152;SDS011;66124;51.146;17.072;2023-04-24T04:00:24;10.70;;;8.30;;
77152;SDS011;66124;51.146;17.072;2023-04-24T04:02:53;11.10;;;8.70;;
77152;SDS011;66124;51.146;17.072;2023-04-24T04:05:22;11.90;;;9.00;;
77152;SDS011;66124;51.146;17.072;2023-04-24T04:07:52;10.40;;;8.20;;
77152;SDS011;66124;51.146;17.072;2023-04-24T04:10:22;11.70;;;8.60;;
77152;SDS011;66124;51.146;17.072;2023-04-24T04:12:51;12.70;;;9.50;;
77152;SDS011;66124;51.146;17.072;2023-04-24T04:15:20;10.90;;;8.40;;
77152;SDS011;66124;51.146;17.072;2023-04-24T04:17:50;12.00;;;8.70;;
77152;SDS011;66124;51.146;17.072;2023-04-24T04:20:19;11.30;;;9.00;;
77152;SDS011;66124;51.146;17.072;2023-04-24T04:22:49;13.10;;;9.30;;
77152;SDS011;66124;51.146;17.072;2023-04-24T04:34:03;12.60;;;9.40;;
77152;SDS011;66124;51.146;17.072;2023-04-24T04:36:33;13.80;;;10.00;;
77152;SDS011;66124;51.146;17.072;2023-04-24T04:39:02;13.10;;;10.10;;
77152;SDS011;66124;51.146;17.072;2023-04-24T04:41:32;14.50;;;9.20;;
77152;SDS011;66124;51.146;17.072;2023-04-24T04:44:01;10.70;;;8.20;;
77152;SDS011;66124;51.146;17.072;2023-04-24T04:46:32;11.40;;;8.30;;
77152;SDS011;66124;51.146;17.072;2023-04-24T04:49:01;10.90;;;8.70;;
77152;SDS011;66124;51.146;17.072;2023-04-24T04:51:31;11.00;;;7.20;;
77152;SDS011;66124;51.146;17.072;2023-04-24T04:54:00;10.00;;;7.90;;
77152;SDS011;66124;51.146;17.072;2023-04-24T04:56:30;13.10;;;7.90;;
77152;SDS011;66124;51.146;17.072;2023-04-24T04:58:59;12.00;;;8.90;;
77152;SDS011;66124;51.146;17.072;2023-04-24T05:01:28;12.90;;;9.00;;
77152;SDS011;66124;51.146;17.072;2023-04-24T05:03:58;11.80;;;8.50;;
77152;SDS011;66124;51.146;17.072;2023-04-24T05:06:27;15.60;;;9.40;;
77152;SDS011;66124;51.146;17.072;2023-04-24T05:08:57;15.20;;;9.70;;
77152;SDS011;66124;51.146;17.072;2023-04-24T05:11:26;13.00;;;8.70;;
77152;SDS011;66124;51.146;17.072;2023-04-24T05:13:55;11.60;;;8.60;;
77152;SDS011;66124;51.146;17.072;2023-04-24T05:16:25;11.80;;;8.50;;
77152;SDS011;66124;51.146;17.072;2023-04-24T05:18:54;11.10;;;8.70;;
77152;SDS011;66124;51.146;17.072;2023-04-24T05:21:23;11.50;;;7.90;;
77152;SDS011;66124;51.146;17.072;2023-04-24T05:23:53;9.50;;;7.40;;
77152;SDS011;66124;51.146;17.072;2023-04-24T05:26:22;11.90;;;7.60;;
77152;SDS011;66124;51.146;17.072;2023-04-24T05:28:52;11.20;;;7.60;;
77152;SDS011;66124;51.146;17.072;2023-04-24T05:31:21;10.50;;;7.30;;
77152;SDS011;66124;51.146;17.072;2023-04-24T05:33:51;10.60;;;7.50;;
77152;SDS011;66124;51.146;17.072;2023-04-24T05:36:20;10.60;;;7.00;;
77152;SDS011;66124;51.146;17.072;2023-04-24T05:38:49;9.40;;;6.20;;
77152;SDS011;66124;51.146;17.072;2023-04-24T05:41:19;10.30;;;6.90;;
77152;SDS011;66124;51.146;17.072;2023-04-24T05:53:51;10.40;;;6.50;;
77152;SDS011;66124;51.146;17.072;2023-04-24T05:56:21;9.20;;;6.00;;
77152;SDS011;66124;51.146;17.072;2023-04-24T05:58:50;8.20;;;5.10;;
77152;SDS011;66124;51.146;17.072;2023-04-24T06:01:20;7.70;;;5.40;;
77152;SDS011;66124;51.146;17.072;2023-04-24T06:03:49;7.80;;;5.20;;
77152;SDS011;66124;51.146;17.072;2023-04-24T06:06:20;7.70;;;5.50;;
77152;SDS011;66124;51.146;17.072;2023-04-24T06:08:51;7.60;;;5.00;;
77152;SDS011;66124;51.146;17.072;2023-04-24T06:11:20;7.10;;;5.70;;
77152;SDS011;66124;51.146;17.072;2023-04-24T06:13:50;7.60;;;5.30;;
77152;SDS011;66124;51.146;17.072;2023-04-24T06:16:19;6.80;;;5.60;;
77152;SDS011;66124;51.146;17.072;2023-04-24T06:18:48;6.60;;;5.10;;
77152;SDS011;66124;51.146;17.072;2023-04-24T06:21:18;6.50;;;5.30;;
77152;SDS011;66124;51.146;17.072;2023-04-24T06:23:47;7.40;;;4.80;;
77152;SDS011;66124;51.146;17.072;2023-04-24T06:26:16;9.20;;;5.50;;
77152;SDS011;66124;51.146;17.072;2023-04-24T06:28:46;7.00;;;4.90;;
77152;SDS011;66124;51.146;17.072;2023-04-24T06:31:15;8.30;;;5.40;;
77152;SDS011;66124;51.146;17.072;2023-04-24T06:33:44;8.30;;;5.00;;
77152;SDS011;66124;51.146;17.072;2023-04-24T06:36:14;6.30;;;5.20;;
77152;SDS011;66124;51.146;17.072;2023-04-24T06:38:44;8.60;;;4.50;;
77152;SDS011;66124;51.146;17.072;2023-04-24T06:41:13;6.70;;;4.60;;
77152;SDS011;66124;51.146;17.072;2023-04-24T06:43:42;6.80;;;4.80;;
77152;SDS011;66124;51.146;17.072;2023-04-24T06:46:12;5.30;;;3.90;;
77152;SDS011;66124;51.146;17.072;2023-04-24T06:48:41;7.10;;;5.10;;
77152;SDS011;66124;51.146;17.072;2023-04-24T06:51:11;6.50;;;4.50;;
77152;SDS011;66124;51.146;17.072;2023-04-24T06:53:40;6.50;;;4.20;;
77152;SDS011;66124;51.146;17.072;2023-04-24T06:56:09;6.20;;;4.90;;
77152;SDS011;66124;51.146;17.072;2023-04-24T06:58:39;6.70;;;4.10;;
77152;SDS011;66124;51.146;17.072;2023-04-24T07:01:09;6.60;;;4.20;;
77152;SDS011;66124;51.146;17.072;2023-04-24T07:03:39;6.90;;;4.20;;
77152;SDS011;66124;51.146;17.072;2023-04-24T07:16:10;6.60;;;4.80;;
77152;SDS011;66124;51.146;17.072;2023-04-24T07:18:39;6.70;;;4.40;;
77152;SDS011;66124;51.146;17.072;2023-04-24T07:21:09;5.30;;;4.20;;
77152;SDS011;66124;51.146;17.072;2023-04-24T07:23:38;6.70;;;4.80;;
77152;SDS011;66124;51.146;17.072;2023-04-24T07:26:07;7.30;;;4.40;;
77152;SDS011;66124;51.146;17.072;2023-04-24T07:28:37;5.30;;;4.10;;
77152;SDS011;66124;51.146;17.072;2023-04-24T07:31:07;7.30;;;4.90;;
77152;SDS011;66124;51.146;17.072;2023-04-24T07:33:38;5.90;;;4.00;;
77152;SDS011;66124;51.146;17.072;2023-04-24T07:36:08;4.30;;;3.90;;
77152;SDS011;66124;51.146;17.072;2023-04-24T07:38:37;9.10;;;5.40;;
77152;SDS011;66124;51.146;17.072;2023-04-24T07:41:07;5.40;;;4.30;;
77152;SDS011;66124;51.146;17.072;2023-04-24T07:43:36;6.10;;;5.10;;
77152;SDS011;66124;51.146;17.072;2023-04-24T07:46:06;7.20;;;4.30;;
77152;SDS011;66124;51.146;17.072;2023-04-24T07:48:36;7.10;;;4.30;;
77152;SDS011;66124;51.146;17.072;2023-04-24T07:51:05;7.00;;;4.70;;
77152;SDS011;66124;51.146;17.072;2023-04-24T07:53:35;9.80;;;4.70;;
77152;SDS011;66124;51.146;17.072;2023-04-24T07:56:04;6.90;;;5.10;;
77152;SDS011;66124;51.146;17.072;2023-04-24T07:58:34;5.70;;;4.30;;
77152;SDS011;66124;51.146;17.072;2023-04-24T08:01:03;7.30;;;4.30;;
77152;SDS011;66124;51.146;17.072;2023-04-24T08:03:33;7.00;;;4.80;;
77152;SDS011;66124;51.146;17.072;2023-04-24T08:06:02;7.60;;;4.80;;
77152;SDS011;66124;51.146;17.072;2023-04-24T08:08:32;7.30;;;5.00;;
77152;SDS011;66124;51.146;17.072;2023-04-24T08:11:02;5.30;;;4.80;;
77152;SDS011;66124;51.146;17.072;2023-04-24T08:16:01;5.60;;;4.20;;
77152;SDS011;66124;51.146;17.072;2023-04-24T08:18:30;5.50;;;4.50;;
77152;SDS011;66124;51.146;17.072;2023-04-24T08:21:00;4.40;;;3.90;;
77152;SDS011;66124;51.146;17.072;2023-04-24T08:23:30;5.70;;;4.10;;
77152;SDS011;66124;51.146;17.072;2023-04-24T08:39:28;5.90;;;4.50;;
77152;SDS011;66124;51.146;17.072;2023-04-24T08:41:57;6.60;;;4.40;;
77152;SDS011;66124;51.146;17.072;2023-04-24T08:44:29;5.90;;;4.30;;
77152;SDS011;66124;51.146;17.072;2023-04-24T08:46:59;5.50;;;4.10;;
77152;SDS011;66124;51.146;17.072;2023-04-24T08:49:30;6.90;;;5.00;;
77152;SDS011;66124;51.146;17.072;2023-04-24T08:52:01;5.10;;;4.60;;
77152;SDS011;66124;51.146;17.072;2023-04-24T08:54:30;6.10;;;4.90;;
77152;SDS011;66124;51.146;17.072;2023-04-24T08:57:01;7.80;;;4.70;;
77152;SDS011;66124;51.146;17.072;2023-04-24T08:59:31;5.20;;;4.20;;
77152;SDS011;66124;51.146;17.072;2023-04-24T09:02:01;6.60;;;4.40;;
77152;SDS011;66124;51.146;17.072;2023-04-24T09:04:33;5.20;;;4.10;;
77152;SDS011;66124;51.146;17.072;2023-04-24T09:07:04;6.40;;;4.60;;
77152;SDS011;66124;51.146;17.072;2023-04-24T09:09:37;6.60;;;4.70;;
77152;SDS011;66124;51.146;17.072;2023-04-24T09:12:09;5.30;;;4.00;;
77152;SDS011;66124;51.146;17.072;2023-04-24T09:14:39;5.60;;;4.70;;
77152;SDS011;66124;51.146;17.072;2023-04-24T09:17:08;5.90;;;4.90;;
77152;SDS011;66124;51.146;17.072;2023-04-24T09:19:37;5.10;;;4.60;;
77152;SDS011;66124;51.146;17.072;2023-04-24T09:22:07;4.60;;;3.70;;
77152;SDS011;66124;51.146;17.072;2023-04-24T09:24:37;4.30;;;3.70;;
77152;SDS011;66124;51.146;17.072;2023-04-24T09:27:07;5.10;;;3.90;;
77152;SDS011;66124;51.146;17.072;2023-04-24T09:29:38;4.40;;;3.90;;
77152;SDS011;66124;51.146;17.072;2023-04-24T09:32:21;4.00;;;3.50;;
77152;SDS011;66124;51.146;17.072;2023-04-24T09:35:04;5.10;;;4.20;;
77152;SDS011;66124;51.146;17.072;2023-04-24T09:37:39;5.30;;;3.40;;
77152;SDS011;66124;51.146;17.072;2023-04-24T09:40:10;4.60;;;4.20;;
77152;SDS011;66124;51.146;17.072;2023-04-24T09:42:41;5.80;;;3.90;;
77152;SDS011;66124;51.146;17.072;2023-04-24T09:45:13;7.20;;;4.90;;
77152;SDS011;66124;51.146;17.072;2023-04-24T09:47:43;4.80;;;4.40;;
77152;SDS011;66124;51.146;17.072;2023-04-24T10:00:46;4.70;;;4.30;;
77152;SDS011;66124;51.146;17.072;2023-04-24T10:03:16;6.60;;;4.00;;
77152;SDS011;66124;51.146;17.072;2023-04-24T10:05:47;4.60;;;3.70;;
77152;SDS011;66124;51.146;17.072;2023-04-24T10:08:16;4.80;;;4.30;;
77152;SDS011;66124;51.146;17.072;2023-04-24T10:10:46;4.80;;;4.20;;
77152;SDS011;66124;51.146;17.072;2023-04-24T10:13:15;5.00;;;4.20;;
77152;SDS011;66124;51.146;17.072;2023-04-24T10:15:44;5.10;;;4.10;;
77152;SDS011;66124;51.146;17.072;2023-04-24T10:18:15;6.60;;;4.30;;
77152;SDS011;66124;51.146;17.072;2023-04-24T10:20:46;5.00;;;4.50;;
77152;SDS011;66124;51.146;17.072;2023-04-24T10:23:16;4.70;;;3.70;;
77152;SDS011;66124;51.146;17.072;2023-04-24T10:25:46;4.40;;;3.40;;
77152;SDS011;66124;51.146;17.072;2023-04-24T10:30:46;3.60;;;3.20;;
77152;SDS011;66124;51.146;17.072;2023-04-24T10:33:17;6.60;;;4.80;;
77152;SDS011;66124;51.146;17.072;2023-04-24T10:35:47;5.70;;;3.90;;
77152;SDS011;66124;51.146;17.072;2023-04-24T10:38:21;4.90;;;4.30;;
77152;SDS011;66124;51.146;17.072;2023-04-24T10:40:52;6.50;;;5.00;;
77152;SDS011;66124;51.146;17.072;2023-04-24T10:43:34;4.40;;;3.80;;
77152;SDS011;66124;51.146;17.072;2023-04-24T10:46:04;4.50;;;3.80;;
77152;SDS011;66124;51.146;17.072;2023-04-24T10:48:34;4.90;;;3.80;;
77152;SDS011;66124;51.146;17.072;2023-04-24T10:51:11;5.70;;;3.50;;
77152;SDS011;66124;51.146;17.072;2023-04-24T10:53:42;4.50;;;4.00;;
77152;SDS011;66124;51.146;17.072;2023-04-24T10:56:11;4.60;;;4.10;;
77152;SDS011;66124;51.146;17.072;2023-04-24T11:01:24;4.70;;;4.20;;
77152;SDS011;66124;51.146;17.072;2023-04-24T11:03:55;5.00;;;4.40;;
77152;SDS011;66124;51.146;17.072;2023-04-24T11:06:29;3.90;;;3.40;;
77152;SDS011;66124;51.146;17.072;2023-04-24T11:09:02;3.10;;;2.80;;
77152;SDS011;66124;51.146;17.072;2023-04-24T11:11:33;4.00;;;3.00;;
77152;SDS011;66124;51.146;17.072;2023-04-24T11:17:04;5.00;;;4.00;;
77152;SDS011;66124;51.146;17.072;2023-04-24T11:19:33;5.30;;;3.60;;
77152;SDS011;66124;51.146;17.072;2023-04-24T11:22:04;5.20;;;4.10;;
77152;SDS011;66124;51.146;17.072;2023-04-24T11:24:49;4.40;;;3.40;;
77152;SDS011;66124;51.146;17.072;2023-04-24T11:27:21;4.50;;;3.70;;
77152;SDS011;66124;51.146;17.072;2023-04-24T11:29:59;7.10;;;4.60;;
77152;SDS011;66124;51.146;17.072;2023-04-24T11:32:29;5.80;;;4.20;;
77152;SDS011;66124;51.146;17.072;2023-04-24T11:35:02;6.90;;;4.50;;
77152;SDS011;66124;51.146;17.072;2023-04-24T11:40:06;4.50;;;3.60;;
77152;SDS011;66124;51.146;17.072;2023-04-24T11:42:38;5.10;;;4.50;;
77152;SDS011;66124;51.146;17.072;2023-04-24T11:45:10;6.60;;;4.30;;
77152;SDS011;66124;51.146;17.072;2023-04-24T11:47:42;9.00;;;5.30;;
77152;SDS011;66124;51.146;17.072;2023-04-24T11:50:13;5.00;;;4.00;;
77152;SDS011;66124;51.146;17.072;2023-04-24T11:52:44;5.30;;;4.00;;
77152;SDS011;66124;51.146;17.072;2023-04-24T11:57:54;6.10;;;4.40;;
77152;SDS011;66124;51.146;17.072;2023-04-24T12:00:25;4.10;;;3.60;;
77152;SDS011;66124;51.146;17.072;2023-04-24T12:03:04;4.80;;;3.90;;
77152;SDS011;66124;51.146;17.072;2023-04-24T12:05:35;5.70;;;4.70;;
77152;SDS011;66124;51.146;17.072;2023-04-24T12:08:05;5.30;;;4.40;;
77152;SDS011;66124;51.146;17.072;2023-04-24T12:10:35;5.80;;;5.10;;
77152;SDS011;66124;51.146;17.072;2023-04-24T12:13:04;5.20;;;4.70;;
77152;SDS011;66124;51.146;17.072;2023-04-24T12:15:39;7.10;;;4.70;;
77152;SDS011;66124;51.146;17.072;2023-04-24T12:18:11;5.80;;;4.10;;
77152;SDS011;66124;51.146;17.072;2023-04-24T12:20:40;4.70;;;3.90;;
77152;SDS011;66124;51.146;17.072;2023-04-24T12:23:10;5.20;;;4.50;;
77152;SDS011;66124;51.146;17.072;2023-04-24T12:25:39;5.00;;;3.40;;
77152;SDS011;66124;51.146;17.072;2023-04-24T12:35:52;5.30;;;4.60;;
77152;SDS011;66124;51.146;17.072;2023-04-24T12:38:23;4.80;;;3.60;;
77152;SDS011;66124;51.146;17.072;2023-04-24T12:41:02;4.30;;;3.40;;
77152;SDS011;66124;51.146;17.072;2023-04-24T12:43:33;5.20;;;3.80;;
77152;SDS011;66124;51.146;17.072;2023-04-24T12:46:03;3.70;;;3.30;;
77152;SDS011;66124;51.146;17.072;2023-04-24T12:48:33;5.00;;;3.90;;
77152;SDS011;66124;51.146;17.072;2023-04-24T12:51:03;4.20;;;3.80;;
77152;SDS011;66124;51.146;17.072;2023-04-24T12:53:33;5.10;;;3.70;;
77152;SDS011;66124;51.146;17.072;2023-04-24T12:56:02;5.40;;;4.00;;
77152;SDS011;66124;51.146;17.072;2023-04-24T12:58:32;5.20;;;3.50;;
77152;SDS011;66124;51.146;17.072;2023-04-24T13:01:02;4.10;;;3.60;;
77152;SDS011;66124;51.146;17.072;2023-04-24T13:03:32;4.80;;;3.60;;
77152;SDS011;66124;51.146;17.072;2023-04-24T13:06:01;4.00;;;3.50;;
77152;SDS011;66124;51.146;17.072;2023-04-24T13:08:30;4.90;;;3.40;;
77152;SDS011;66124;51.146;17.072;2023-04-24T13:11:00;4.80;;;3.10;;
77152;SDS011;66124;51.146;17.072;2023-04-24T13:13:29;3.50;;;3.00;;
77152;SDS011;66124;51.146;17.072;2023-04-24T13:15:59;3.20;;;2.30;;
77152;SDS011;66124;51.146;17.072;2023-04-24T13:18:28;3.50;;;2.20;;
77152;SDS011;66124;51.146;17.072;2023-04-24T13:20:58;2.10;;;1.60;;
77152;SDS011;66124;51.146;17.072;2023-04-24T13:23:27;2.30;;;1.50;;
77152;SDS011;66124;51.146;17.072;2023-04-24T13:25:56;1.90;;;1.50;;
77152;SDS011;66124;51.146;17.072;2023-04-24T13:28:26;1.30;;;1.20;;
77152;SDS011;66124;51.146;17.072;2023-04-24T13:30:55;1.70;;;1.10;;
77152;SDS011;66124;51.146;17.072;2023-04-24T13:33:25;1.00;;;0.90;;
77152;SDS011;66124;51.146;17.072;2023-04-24T13:35:55;0.80;;;0.60;;
77152;SDS011;66124;51.146;17.072;2023-04-24T13:38:24;2.70;;;0.80;;
77152;SDS011;66124;51.146;17.072;2023-04-24T13:40:53;1.40;;;1.00;;
77152;SDS011;66124;51.146;17.072;2023-04-24T13:43:23;1.90;;;0.60;;
77152;SDS011;66124;51.146;17.072;2023-04-24T13:45:53;1.40;;;0.90;;
77152;SDS011;66124;51.146;17.072;2023-04-24T13:55:56;1.10;;;1.00;;
77152;SDS011;66124;51.146;17.072;2023-04-24T13:58:25;1.30;;;1.00;;
77152;SDS011;66124;51.146;17.072;2023-04-24T14:00:55;0.80;;;0.80;;
77152;SDS011;66124;51.146;17.072;2023-04-24T14:03:24;0.70;;;0.60;;
77152;SDS011;66124;51.146;17.072;2023-04-24T14:05:54;1.00;;;0.60;;
77152;SDS011;66124;51.146;17.072;2023-04-24T14:08:24;0.80;;;0.60;;
77152;SDS011;66124;51.146;17.072;2023-04-24T14:10:54;3.20;;;0.60;;
77152;SDS011;66124;51.146;17.072;2023-04-24T14:13:23;1.00;;;0.70;;
77152;SDS011;66124;51.146;17.072;2023-04-24T14:15:53;1.80;;;0.80;;
77152;SDS011;66124;51.146;17.072;2023-04-24T14:18:22;2.00;;;0.80;;
77152;SDS011;66124;51.146;17.072;2023-04-24T14:20:52;1.40;;;0.70;;
77152;SDS011;66124;51.146;17.072;2023-04-24T14:23:21;3.50;;;0.90;;
77152;SDS011;66124;51.146;17.072;2023-04-24T14:25:51;1.10;;;0.60;;
77152;SDS011;66124;51.146;17.072;2023-04-24T14:28:20;2.00;;;0.70;;
77152;SDS011;66124;51.146;17.072;2023-04-24T14:30:50;0.90;;;0.60;;
77152;SDS011;66124;51.146;17.072;2023-04-24T14:33:19;1.40;;;0.80;;
77152;SDS011;66124;51.146;17.072;2023-04-24T14:35:49;1.80;;;1.10;;
77152;SDS011;66124;51.146;17.072;2023-04-24T14:38:18;2.00;;;1.30;;
77152;SDS011;66124;51.146;17.072;2023-04-24T14:40:48;1.90;;;1.10;;
77152;SDS011;66124;51.146;17.072;2023-04-24T14:43:17;2.20;;;1.30;;
77152;SDS011;66124;51.146;17.072;2023-04-24T14:45:47;3.40;;;1.40;;
77152;SDS011;66124;51.146;17.072;2023-04-24T14:48:16;1.60;;;1.40;;
77152;SDS011;66124;51.146;17.072;2023-04-24T14:50:46;1.90;;;1.20;;
77152;SDS011;66124;51.146;17.072;2023-04-24T14:53:15;1.90;;;1.70;;
77152;SDS011;66124;51.146;17.072;2023-04-24T14:55:44;4.30;;;1.60;;
77152;SDS011;66124;51.146;17.072;2023-04-24T14:58:14;2.10;;;1.50;;
77152;SDS011;66124;51.146;17.072;2023-04-24T15:00:43;2.10;;;1.60;;
77152;SDS011;66124;51.146;17.072;2023-04-24T15:03:13;3.70;;;2.00;;
77152;SDS011;66124;51.146;17.072;2023-04-24T15:16:05;3.60;;;2.00;;
77152;SDS011;66124;51.146;17.072;2023-04-24T15:18:35;3.60;;;1.90;;
77152;SDS011;66124;51.146;17.072;2023-04-24T15:21:04;4.00;;;1.80;;
77152;SDS011;66124;51.146;17.072;2023-04-24T15:23:33;2.60;;;1.80;;
77152;SDS011;66124;51.146;17.072;2023-04-24T15:26:03;3.20;;;1.50;;
77152;SDS011;66124;51.146;17.072;2023-04-24T15:28:34;2.70;;;1.60;;
77152;SDS011;66124;51.146;17.072;2023-04-24T15:31:03;3.00;;;1.70;;
77152;SDS011;66124;51.146;17.072;2023-04-24T15:33:33;3.90;;;1.80;;
77152;SDS011;66124;51.146;17.072;2023-04-24T15:36:02;2.40;;;1.70;;
77152;SDS011;66124;51.146;17.072;2023-04-24T15:38:32;5.00;;;1.70;;
77152;SDS011;66124;51.146;17.072;2023-04-24T15:41:02;3.30;;;1.80;;
77152;SDS011;66124;51.146;17.072;2023-04-24T15:43:31;2.50;;;1.50;;
77152;SDS011;66124;51.146;17.072;2023-04-24T15:46:01;2.80;;;1.40;;
77152;SDS011;66124;51.146;17.072;2023-04-24T15:48:30;2.60;;;1.70;;
77152;SDS011;66124;51.146;17.072;2023-04-24T15:51:00;2.50;;;1.70;;
77152;SDS011;66124;51.146;17.072;2023-04-24T15:53:29;2.30;;;1.30;;
77152;SDS011;66124;51.146;17.072;2023-04-24T15:55:59;2.40;;;1.50;;
77152;SDS011;66124;51.146;17.072;2023-04-24T15:58:28;2.40;;;1.60;;
77152;SDS011;66124;51.146;17.072;2023-04-24T16:00:58;2.30;;;1.40;;
77152;SDS011;66124;51.146;17.072;2023-04-24T16:03:27;3.60;;;1.50;;
77152;SDS011;66124;51.146;17.072;2023-04-24T16:05:57;1.50;;;1.10;;
77152;SDS011;66124;51.146;17.072;2023-04-24T16:08:26;2.10;;;1.40;;
77152;SDS011;66124;51.146;17.072;2023-04-24T16:10:55;1.50;;;1.20;;
77152;SDS011;66124;51.146;17.072;2023-04-24T16:13:25;3.10;;;1.40;;
77152;SDS011;66124;51.146;17.072;2023-04-24T16:15:54;4.40;;;1.20;;
77152;SDS011;66124;51.146;17.072;2023-04-24T16:18:24;2.70;;;1.50;;
77152;SDS011;66124;51.146;17.072;2023-04-24T16:20:53;1.70;;;1.10;;
77152;SDS011;66124;51.146;17.072;2023-04-24T16:23:23;3.40;;;1.60;;
77152;SDS011;66124;51.146;17.072;2023-04-24T16:40:36;4.50;;;2.10;;
77152;SDS011;66124;51.146;17.072;2023-04-24T16:43:06;3.10;;;1.60;;
77152;SDS011;66124;51.146;17.072;2023-04-24T16:45:35;3.00;;;1.70;;
77152;SDS011;66124;51.146;17.072;2023-04-24T16:48:05;2.90;;;2.00;;
77152;SDS011;66124;51.146;17.072;2023-04-24T16:50:34;4.10;;;2.40;;
77152;SDS011;66124;51.146;17.072;2023-04-24T16:53:05;4.40;;;2.90;;
77152;SDS011;66124;51.146;17.072;2023-04-24T16:55:35;3.80;;;2.50;;
77152;SDS011;66124;51.146;17.072;2023-04-24T16:58:04;5.00;;;3.30;;
77152;SDS011;66124;51.146;17.072;2023-04-24T17:00:34;4.00;;;3.50;;
77152;SDS011;66124;51.146;17.072;2023-04-24T17:03:03;4.60;;;3.50;;
77152;SDS011;66124;51.146;17.072;2023-04-24T17:05:33;5.60;;;3.60;;